Time;durP1;ratioP1;P1;durP2;ratioP2;P2;SDS_P1;SDS_P2;PMS_P1;PMS_P2;Temp;Humidity;BMP_temperature;BMP_pressure;BME280_temperature;BME280_humidity;BME280_pressure;Samples;Min_cycle;Max_cycle;Signal;HPM_P1;HPM_P2
2022/03/09 00:01:58;;;;;;;3.83;3.03;;;3.70;52.80;;;;;;5082615;28;20194;-73
2022/03/09 00:04:26;;;;;;;5.20;3.43;;;3.70;52.70;;;;;;5069571;28;20208;-78
2022/03/09 00:06:52;;;;;;;5.27;3.40;;;3.60;52.50;;;;;;5113900;27;20242;-77
2022/03/09 00:09:18;;;;;;;5.17;3.60;;;3.60;52.30;;;;;;5076767;28;20199;-77
2022/03/09 00:11:44;;;;;;;4.77;3.37;;;3.60;53.40;;;;;;5102816;28;20223;-73
2022/03/09 00:14:09;;;;;;;4.57;3.40;;;3.70;53.10;;;;;;5077110;28;20180;-78
2022/03/09 00:16:37;;;;;;;4.90;3.70;;;3.70;53.10;;;;;;5107666;27;20241;-76
2022/03/09 00:19:05;;;;;;;6.50;3.90;;;3.70;53.60;;;;;;5089209;28;20183;-78
2022/03/09 00:21:31;;;;;;;4.90;3.67;;;3.80;54.80;;;;;;5078552;28;20252;-75
2022/03/09 00:23:59;;;;;;;5.13;3.70;;;3.90;55.10;;;;;;5104241;27;20295;-75
2022/03/09 00:26:24;;;;;;;5.03;3.67;;;3.90;54.10;;;;;;5107871;28;20191;-78
2022/03/09 00:28:50;;;;;;;5.10;3.93;;;4.00;53.70;;;;;;5077503;28;20176;-74
2022/03/09 00:31:18;;;;;;;4.70;3.50;;;4.00;53.60;;;;;;5067309;28;20187;-77
2022/03/09 00:33:43;;;;;;;11.23;3.70;;;4.10;53.90;;;;;;5104790;28;20176;-79
2022/03/09 00:36:10;;;;;;;4.63;3.47;;;4.10;53.70;;;;;;5086228;28;20199;-77
2022/03/09 00:38:35;;;;;;;4.43;3.30;;;4.20;53.90;;;;;;5078559;28;20227;-73
2022/03/09 00:41:04;;;;;;;4.77;3.33;;;4.20;53.70;;;;;;5113411;27;20210;-76
2022/03/09 00:43:29;;;;;;;4.30;3.10;;;4.20;53.80;;;;;;5100765;28;20222;-74
2022/03/09 00:45:55;;;;;;;4.47;2.80;;;4.20;53.50;;;;;;5087520;28;20203;-77
2022/03/09 00:48:21;;;;;;;5.27;3.33;;;4.20;53.40;;;;;;5084203;28;20177;-74
2022/03/09 00:50:46;;;;;;;4.33;3.27;;;4.10;53.30;;;;;;5110093;27;21191;-77
2022/03/09 00:53:19;;;;;;;5.07;3.60;;;4.10;53.50;;;;;;5075582;28;20286;-73
2022/03/09 00:55:45;;;;;;;6.20;3.70;;;4.10;54.10;;;;;;5083856;28;20206;-75
2022/03/09 00:58:13;;;;;;;4.30;3.33;;;4.00;54.00;;;;;;5091960;28;20180;-77
2022/03/09 01:00:41;;;;;;;4.57;3.37;;;4.00;53.80;;;;;;5074397;28;20196;-75
2022/03/09 01:03:09;;;;;;;5.10;3.60;;;3.90;54.20;;;;;;5097528;28;20180;-73
2022/03/09 01:05:34;;;;;;;4.10;3.13;;;3.80;54.10;;;;;;5072435;28;20179;-78
2022/03/09 01:08:00;;;;;;;4.47;3.30;;;3.80;54.00;;;;;;5100075;27;20211;-75
2022/03/09 01:10:27;;;;;;;5.07;3.20;;;3.70;54.00;;;;;;5098957;28;20175;-77
2022/03/09 01:12:54;;;;;;;3.60;2.97;;;3.70;54.00;;;;;;5106660;27;20180;-76
2022/03/09 01:15:20;;;;;;;4.77;3.10;;;3.60;54.10;;;;;;5079511;28;20301;-75
2022/03/09 01:17:46;;;;;;;4.10;3.20;;;3.60;54.10;;;;;;5107981;27;20207;-75
2022/03/09 01:20:12;;;;;;;3.90;2.60;;;3.60;54.20;;;;;;5110019;28;20195;-77
2022/03/09 01:22:37;;;;;;;3.50;2.80;;;3.50;54.20;;;;;;5086343;28;20176;-78
2022/03/09 01:25:03;;;;;;;4.53;3.20;;;3.50;54.30;;;;;;5081801;28;20274;-77
2022/03/09 01:27:29;;;;;;;4.87;3.30;;;3.40;54.30;;;;;;5077252;28;20172;-73
2022/03/09 01:29:55;;;;;;;4.23;3.20;;;3.40;54.40;;;;;;5072556;28;20324;-77
2022/03/09 01:32:21;;;;;;;4.50;3.00;;;3.40;54.60;;;;;;5105125;27;20193;-75
2022/03/09 01:34:48;;;;;;;4.57;3.20;;;3.30;54.60;;;;;;5110571;27;20241;-77
2022/03/09 01:37:15;;;;;;;5.10;3.00;;;3.30;54.90;;;;;;5085636;28;20187;-76
2022/03/09 01:39:43;;;;;;;5.13;3.43;;;3.30;54.80;;;;;;5080157;28;20216;-78
2022/03/09 01:42:09;;;;;;;5.23;3.63;;;3.20;54.60;;;;;;5075549;28;20176;-78
2022/03/09 01:44:35;;;;;;;4.77;3.70;;;3.20;56.10;;;;;;5102572;27;20287;-78
2022/03/09 01:47:00;;;;;;;4.63;3.60;;;3.10;56.80;;;;;;5076679;28;20283;-77
2022/03/09 01:49:31;;;;;;;5.63;3.50;;;3.10;56.70;;;;;;5076759;28;20297;-76
2022/03/09 01:52:00;;;;;;;4.93;3.57;;;3.00;56.60;;;;;;5074668;28;20302;-71
2022/03/09 01:54:27;;;;;;;5.10;3.40;;;3.00;56.40;;;;;;5101762;27;20191;-74
2022/03/09 01:56:53;;;;;;;5.33;3.00;;;2.90;56.50;;;;;;5091860;28;20248;-70
2022/03/09 01:59:19;;;;;;;5.43;3.30;;;2.90;56.30;;;;;;5108495;28;20194;-77
2022/03/09 02:01:46;;;;;;;5.77;3.47;;;2.80;56.40;;;;;;5101791;27;20203;-75
2022/03/09 02:04:13;;;;;;;4.23;3.30;;;2.80;57.00;;;;;;5105622;27;20224;-78
2022/03/09 02:06:39;;;;;;;5.50;3.40;;;2.80;56.90;;;;;;5077867;28;20188;-76
2022/03/09 02:11:55;;;;;;;4.00;3.07;;;2.70;57.30;;;;;;5091605;28;20202;-76
2022/03/09 02:14:48;;;;;;;4.70;3.07;;;2.70;57.00;;;;;;5080969;28;20184;-75
2022/03/09 02:17:18;;;;;;;4.20;3.10;;;2.60;58.30;;;;;;5073623;28;20219;-74
2022/03/09 02:19:50;;;;;;;3.97;2.80;;;2.60;57.50;;;;;;5109464;28;20180;-78
2022/03/09 02:22:19;;;;;;;4.10;3.20;;;2.60;57.60;;;;;;5102198;28;20267;-69
2022/03/09 02:24:46;;;;;;;4.60;3.13;;;2.60;57.70;;;;;;5088023;28;20273;-73
2022/03/09 02:27:14;;;;;;;4.27;3.13;;;2.60;57.40;;;;;;5067451;28;20180;-69
2022/03/09 02:29:40;;;;;;;4.63;3.20;;;2.60;58.00;;;;;;5071695;28;20172;-79
2022/03/09 02:32:07;;;;;;;4.87;3.33;;;2.60;58.60;;;;;;5083321;28;20202;-76
2022/03/09 02:34:35;;;;;;;4.27;3.20;;;2.60;58.70;;;;;;5119433;27;20175;-77
2022/03/09 02:37:03;;;;;;;4.50;3.23;;;2.70;58.50;;;;;;5086043;28;20258;-73
2022/03/09 02:39:28;;;;;;;4.83;3.20;;;2.70;58.70;;;;;;5077702;28;20195;-76
2022/03/09 02:41:56;;;;;;;3.80;2.80;;;2.70;58.40;;;;;;5066827;28;20193;-68
2022/03/09 02:44:22;;;;;;;3.80;2.90;;;2.70;58.60;;;;;;5119219;27;20199;-76
2022/03/09 02:46:48;;;;;;;4.00;3.00;;;2.70;58.30;;;;;;5090926;28;20210;-77
2022/03/09 02:49:13;;;;;;;4.30;2.83;;;2.70;58.40;;;;;;5078997;28;20187;-73
2022/03/09 02:51:41;;;;;;;4.93;3.10;;;2.70;58.60;;;;;;5079314;28;20324;-76
2022/03/09 02:54:09;;;;;;;4.60;3.20;;;2.70;58.70;;;;;;5079115;28;20321;-75
2022/03/09 02:56:37;;;;;;;4.40;3.20;;;2.70;58.80;;;;;;5077483;28;20183;-78
2022/03/09 02:59:07;;;;;;;5.10;3.27;;;2.70;59.00;;;;;;5115809;27;20205;-77
2022/03/09 03:01:33;;;;;;;3.67;2.70;;;2.70;59.80;;;;;;5091018;28;20183;-77
2022/03/09 03:04:00;;;;;;;3.77;2.73;;;2.70;59.50;;;;;;5080912;28;20293;-77
2022/03/09 03:06:26;;;;;;;3.80;2.77;;;2.70;59.50;;;;;;5125149;27;20171;-75
2022/03/09 03:08:54;;;;;;;4.13;2.70;;;2.70;59.40;;;;;;5114589;27;20240;-76
2022/03/09 03:11:20;;;;;;;3.77;2.60;;;2.70;59.50;;;;;;5079728;28;20481;-75
2022/03/09 03:13:45;;;;;;;4.30;2.97;;;2.70;59.50;;;;;;5089333;28;20269;-76
2022/03/09 03:16:12;;;;;;;3.67;2.67;;;2.80;59.50;;;;;;5077631;28;20172;-77
2022/03/09 03:18:39;;;;;;;4.27;2.90;;;2.80;59.40;;;;;;5101941;28;20219;-76
2022/03/09 03:21:05;;;;;;;3.90;2.93;;;2.70;59.20;;;;;;5101942;27;20228;-70
2022/03/09 03:23:33;;;;;;;4.50;2.70;;;2.70;59.20;;;;;;5085832;28;20292;-76
2022/03/09 03:25:59;;;;;;;3.20;2.73;;;2.70;59.30;;;;;;5111757;27;20202;-77
2022/03/09 03:28:26;;;;;;;5.33;3.10;;;2.70;59.40;;;;;;5102047;27;20208;-77
2022/03/09 03:30:52;;;;;;;4.40;2.83;;;2.70;59.80;;;;;;5069366;28;20183;-77
2022/03/09 03:33:24;;;;;;;4.17;2.67;;;2.60;59.80;;;;;;5113779;27;20180;-73
2022/03/09 03:35:50;;;;;;;4.30;2.97;;;2.60;59.90;;;;;;5112558;27;20215;-75
2022/03/09 03:38:16;;;;;;;3.90;2.60;;;2.60;59.90;;;;;;5106367;27;20405;-77
2022/03/09 03:40:42;;;;;;;4.10;3.10;;;2.50;59.70;;;;;;5099483;27;20179;-75
2022/03/09 03:43:08;;;;;;;2.77;2.30;;;2.50;59.60;;;;;;5106217;27;20173;-77
2022/03/09 03:45:36;;;;;;;3.37;2.50;;;2.50;59.70;;;;;;5114315;27;20219;-70
2022/03/09 03:48:03;;;;;;;3.63;2.50;;;2.40;59.60;;;;;;5094330;28;20462;-74
2022/03/09 03:50:28;;;;;;;3.63;2.53;;;2.40;59.70;;;;;;5104563;27;20172;-75
2022/03/09 03:52:56;;;;;;;3.03;2.30;;;2.30;59.80;;;;;;5076630;28;20198;-73
2022/03/09 03:55:24;;;;;;;4.23;2.50;;;2.30;60.20;;;;;;5110609;27;20195;-73
2022/03/09 03:57:50;;;;;;;3.23;2.30;;;2.30;59.90;;;;;;5069993;28;20180;-67
2022/03/09 04:00:16;;;;;;;3.87;2.67;;;2.20;59.80;;;;;;5094471;28;20190;-77
2022/03/09 04:02:42;;;;;;;3.17;2.40;;;2.20;60.00;;;;;;5109712;28;20289;-77
2022/03/09 04:05:10;;;;;;;3.57;2.23;;;2.20;60.10;;;;;;5078677;28;20249;-74
2022/03/09 04:07:42;;;;;;;3.53;2.73;;;2.20;60.20;;;;;;5074712;28;20186;-77
2022/03/09 04:10:10;;;;;;;3.40;2.40;;;2.10;61.10;;;;;;5094526;28;20215;-76
2022/03/09 04:12:38;;;;;;;4.07;2.57;;;2.10;60.00;;;;;;5075392;28;20196;-72
2022/03/09 04:15:04;;;;;;;3.43;2.70;;;2.10;60.80;;;;;;5071888;28;20219;-78
2022/03/09 04:17:38;;;;;;;6.17;2.57;;;2.00;60.20;;;;;;5105594;27;20247;-77
2022/03/09 04:20:06;;;;;;;4.37;2.80;;;2.10;62.10;;;;;;5078766;28;20211;-77
2022/03/09 04:22:34;;;;;;;4.10;2.90;;;2.00;61.40;;;;;;5078834;28;20201;-77
2022/03/09 04:25:00;;;;;;;3.97;2.90;;;2.00;62.60;;;;;;5105766;27;20273;-78
2022/03/09 04:27:28;;;;;;;4.70;2.80;;;1.90;62.60;;;;;;5094699;28;20234;-73
2022/03/09 04:29:56;;;;;;;4.13;3.07;;;1.90;63.20;;;;;;5104409;27;20180;-76
2022/03/09 04:32:22;;;;;;;6.97;3.47;;;1.90;63.30;;;;;;5077773;28;20172;-75
2022/03/09 04:34:48;;;;;;;6.10;3.50;;;1.80;64.20;;;;;;5101790;27;20219;-73
2022/03/09 04:37:13;;;;;;;5.67;3.13;;;1.80;64.80;;;;;;5072932;28;20213;-78
2022/03/09 04:39:39;;;;;;;3.83;3.00;;;1.70;64.40;;;;;;5100221;28;20210;-76
2022/03/09 04:42:05;;;;;;;4.57;2.83;;;1.70;64.00;;;;;;5082224;28;20218;-77
2022/03/09 04:44:37;;;;;;;4.47;3.00;;;1.70;63.90;;;;;;5086407;28;20345;-75
2022/03/09 04:47:03;;;;;;;3.63;2.60;;;1.60;64.70;;;;;;5076776;28;20255;-77
2022/03/09 04:49:29;;;;;;;4.10;2.90;;;1.60;64.20;;;;;;5102237;27;20326;-78
2022/03/09 04:51:57;;;;;;;4.43;2.60;;;1.60;64.00;;;;;;5110914;28;20208;-77
2022/03/09 04:54:23;;;;;;;3.90;2.37;;;1.60;64.70;;;;;;5107232;27;20194;-79
2022/03/09 04:56:51;;;;;;;3.90;2.80;;;1.60;64.30;;;;;;5106485;27;20180;-71
2022/03/09 04:59:17;;;;;;;3.77;2.70;;;1.50;64.40;;;;;;5095281;28;20244;-78
2022/03/09 05:01:46;;;;;;;3.67;2.70;;;1.50;65.30;;;;;;5078689;28;20290;-74
2022/03/09 05:04:13;;;;;;;7.30;2.90;;;1.50;65.40;;;;;;5076296;28;20204;-76
2022/03/09 05:06:39;;;;;;;3.40;2.60;;;1.60;65.70;;;;;;5073820;28;20183;-70
2022/03/09 05:09:07;;;;;;;3.77;2.73;;;1.60;65.80;;;;;;5098923;28;20195;-74
2022/03/09 05:11:33;;;;;;;3.70;2.67;;;1.60;66.70;;;;;;5109300;27;20168;-73
2022/03/09 05:13:58;;;;;;;4.87;3.00;;;1.60;65.90;;;;;;5100105;27;20218;-76
2022/03/09 05:16:26;;;;;;;4.17;3.17;;;1.60;66.10;;;;;;5099436;27;20301;-73
2022/03/09 05:18:52;;;;;;;3.80;2.83;;;1.60;66.70;;;;;;5075503;28;20198;-74
2022/03/09 05:21:17;;;;;;;4.47;2.87;;;1.60;66.80;;;;;;5075385;28;20179;-76
2022/03/09 05:23:48;;;;;;;3.77;2.87;;;1.60;67.80;;;;;;5086220;28;20206;-74
2022/03/09 05:26:16;;;;;;;4.10;3.10;;;1.60;68.40;;;;;;5078161;28;20240;-73
2022/03/09 05:28:41;;;;;;;3.93;2.83;;;1.70;68.10;;;;;;5082818;28;20191;-72
2022/03/09 05:31:07;;;;;;;4.03;2.60;;;1.70;67.30;;;;;;5110470;27;20195;-73
2022/03/09 05:33:33;;;;;;;4.00;2.97;;;1.80;67.30;;;;;;5102830;27;20194;-74
2022/03/09 05:36:00;;;;;;;4.73;3.13;;;1.80;67.50;;;;;;5067856;28;20219;-66
2022/03/09 05:38:26;;;;;;;5.33;3.27;;;1.80;68.20;;;;;;5072621;28;20251;-72
2022/03/09 05:40:54;;;;;;;5.37;3.60;;;1.90;68.50;;;;;;5108779;27;20215;-75
2022/03/09 05:43:20;;;;;;;4.93;3.60;;;1.90;68.50;;;;;;5109814;27;20180;-72
2022/03/09 05:45:50;;;;;;;4.90;3.40;;;1.90;68.20;;;;;;5084942;28;20180;-75
2022/03/09 05:48:16;;;;;;;5.73;3.57;;;2.00;69.40;;;;;;5079829;28;20183;-74
2022/03/09 05:50:44;;;;;;;5.80;3.73;;;2.00;68.90;;;;;;5079450;28;20230;-73
2022/03/09 05:53:09;;;;;;;4.60;3.20;;;2.00;68.50;;;;;;5116057;27;20175;-74
2022/03/09 05:55:35;;;;;;;4.10;3.10;;;2.10;68.50;;;;;;5112800;27;20190;-72
2022/03/09 05:58:04;;;;;;;4.67;3.23;;;2.10;68.30;;;;;;5113556;27;20244;-74
2022/03/09 06:00:32;;;;;;;5.47;3.23;;;2.10;68.80;;;;;;5096040;28;20176;-71
2022/03/09 06:03:00;;;;;;;3.97;3.20;;;2.20;68.60;;;;;;5108036;27;20200;-74
2022/03/09 06:05:26;;;;;;;5.70;3.03;;;2.20;68.60;;;;;;5113257;28;20203;-74
2022/03/09 06:07:52;;;;;;;4.80;3.33;;;2.20;68.80;;;;;;5097779;28;20272;-71
2022/03/09 06:10:17;;;;;;;4.23;3.30;;;2.20;69.50;;;;;;5075827;28;20214;-73
2022/03/09 06:12:43;;;;;;;5.20;3.60;;;2.30;69.30;;;;;;5100189;28;20203;-73
2022/03/09 06:15:09;;;;;;;4.43;3.07;;;2.30;69.90;;;;;;5066862;28;20229;-67
2022/03/09 06:17:45;;;;;;;4.43;3.37;;;2.30;69.40;;;;;;5120876;28;20392;-73
2022/03/09 06:20:14;;;;;;;5.87;2.97;;;2.40;70.80;;;;;;5072798;28;20200;-69
2022/03/09 06:22:41;;;;;;;5.37;3.20;;;2.40;70.30;;;;;;5073361;28;20184;-69
2022/03/09 06:25:10;;;;;;;5.37;3.17;;;2.40;69.70;;;;;;5107386;28;20204;-71
2022/03/09 06:27:46;;;;;;;4.73;3.30;;;2.50;70.40;;;;;;5075317;28;20203;-73
2022/03/09 06:30:16;;;;;;;5.40;3.57;;;2.50;71.00;;;;;;5105974;28;20175;-74
2022/03/09 06:32:46;;;;;;;8.27;4.20;;;2.50;70.30;;;;;;5065103;28;20431;-73
2022/03/09 06:35:13;;;;;;;5.93;3.37;;;2.60;70.50;;;;;;5107693;28;20190;-74
2022/03/09 06:37:39;;;;;;;5.83;3.50;;;2.60;70.30;;;;;;5107056;28;20176;-74
2022/03/09 06:40:08;;;;;;;4.63;3.37;;;2.70;70.00;;;;;;5103155;28;20190;-72
2022/03/09 06:42:36;;;;;;;5.63;3.07;;;2.70;70.50;;;;;;5093412;28;20177;-73
2022/03/09 06:45:10;;;;;;;6.50;3.30;;;2.70;70.50;;;;;;5110691;28;20192;-73
2022/03/09 06:47:38;;;;;;;4.13;2.70;;;2.80;70.90;;;;;;5104598;28;20167;-73
2022/03/09 06:50:08;;;;;;;5.03;3.33;;;2.80;70.00;;;;;;5083290;28;20196;-73
2022/03/09 06:52:34;;;;;;;4.90;3.40;;;2.80;70.10;;;;;;5084886;28;20198;-74
2022/03/09 06:55:03;;;;;;;4.90;3.40;;;2.90;70.20;;;;;;5078210;28;20180;-71
2022/03/09 06:57:32;;;;;;;4.23;3.23;;;2.90;70.40;;;;;;5107351;28;20221;-69
2022/03/09 07:00:00;;;;;;;4.93;3.33;;;3.00;71.10;;;;;;5108450;28;20180;-73
2022/03/09 07:02:26;;;;;;;5.50;3.73;;;3.00;71.10;;;;;;5102476;28;20180;-71
2022/03/09 07:04:55;;;;;;;4.00;3.23;;;3.00;70.70;;;;;;5112701;28;20191;-74
2022/03/09 07:07:21;;;;;;;4.67;3.13;;;3.10;70.40;;;;;;5094161;28;20177;-70
2022/03/09 07:09:46;;;;;;;4.80;3.50;;;3.20;70.30;;;;;;5074002;28;20199;-73
2022/03/09 07:12:14;;;;;;;5.37;3.40;;;3.20;71.00;;;;;;5108142;28;20208;-73
2022/03/09 07:14:40;;;;;;;5.03;3.30;;;3.30;71.40;;;;;;5067876;28;20173;-73
2022/03/09 07:17:05;;;;;;;6.20;3.30;;;3.30;70.80;;;;;;5073351;28;20190;-74
2022/03/09 07:19:31;;;;;;;5.27;3.10;;;3.40;70.90;;;;;;5123347;27;20231;-73
2022/03/09 07:21:57;;;;;;;6.30;3.57;;;3.40;70.80;;;;;;5129014;27;20190;-73
2022/03/09 07:24:24;;;;;;;5.20;3.40;;;3.50;70.90;;;;;;5111328;28;20234;-74
2022/03/09 07:26:53;;;;;;;6.30;3.87;;;3.60;70.80;;;;;;5108880;27;20212;-69
2022/03/09 07:29:21;;;;;;;6.30;3.80;;;3.60;70.70;;;;;;5095001;28;20176;-71
2022/03/09 07:31:46;;;;;;;5.10;3.63;;;3.70;70.70;;;;;;5073399;28;20187;-74
2022/03/09 07:34:12;;;;;;;5.43;3.40;;;3.70;71.00;;;;;;5112390;27;20206;-76
2022/03/09 07:36:40;;;;;;;4.70;3.30;;;3.80;71.20;;;;;;5108337;27;20448;-75
2022/03/09 07:39:06;;;;;;;5.33;3.70;;;3.90;70.90;;;;;;5099330;28;20217;-76
2022/03/09 07:41:32;;;;;;;6.07;3.63;;;4.00;70.90;;;;;;5108343;27;20254;-79
2022/03/09 07:43:57;;;;;;;5.07;3.40;;;4.00;71.00;;;;;;5108388;27;20443;-79
2022/03/09 07:46:23;;;;;;;4.93;3.40;;;4.10;70.90;;;;;;5090816;28;20187;-77
2022/03/09 07:48:48;;;;;;;4.23;3.13;;;4.20;71.10;;;;;;5075413;28;20204;-79
2022/03/09 07:51:14;;;;;;;6.60;3.83;;;4.30;70.60;;;;;;5105348;27;20168;-75
2022/03/09 07:53:43;;;;;;;4.30;3.37;;;4.40;70.70;;;;;;5103939;28;20190;-79
2022/03/09 07:56:12;;;;;;;5.57;3.73;;;4.50;70.90;;;;;;5077119;28;20191;-78
2022/03/09 07:58:39;;;;;;;6.23;3.80;;;4.60;71.30;;;;;;5116276;27;20229;-80
2022/03/09 08:01:07;;;;;;;4.73;3.50;;;4.70;70.70;;;;;;5111032;27;20180;-80
2022/03/09 08:03:35;;;;;;;5.97;3.90;;;4.90;70.60;;;;;;5103853;27;20286;-79
2022/03/09 08:06:04;;;;;;;6.53;3.70;;;5.00;69.90;;;;;;5108539;27;20198;-79
2022/03/09 08:08:29;;;;;;;5.73;3.27;;;5.20;69.30;;;;;;5116492;27;20179;-78
2022/03/09 08:10:59;;;;;;;4.87;3.50;;;5.30;68.90;;;;;;5078403;28;20188;-76
2022/03/09 08:13:25;;;;;;;5.63;3.63;;;5.50;68.20;;;;;;5074950;28;20177;-80
2022/03/09 08:15:53;;;;;;;5.37;3.43;;;5.60;66.70;;;;;;5069405;28;20187;-77
2022/03/09 08:18:18;;;;;;;6.43;3.67;;;5.80;66.70;;;;;;5075081;28;20203;-78
2022/03/09 08:20:44;;;;;;;4.47;3.40;;;5.90;66.20;;;;;;5114658;27;20188;-79
2022/03/09 08:23:10;;;;;;;4.93;3.70;;;6.10;65.80;;;;;;5079905;28;20215;-79
2022/03/09 08:25:36;;;;;;;4.47;3.40;;;6.20;65.30;;;;;;5120964;27;20207;-79
2022/03/09 08:28:01;;;;;;;5.23;3.60;;;6.30;64.10;;;;;;5081940;28;20191;-75
2022/03/09 08:30:27;;;;;;;5.13;3.70;;;6.40;63.90;;;;;;5064910;28;20184;-69
2022/03/09 08:32:53;;;;;;;5.53;4.10;;;6.50;62.40;;;;;;5063698;28;20295;-79
2022/03/09 08:35:19;;;;;;;5.40;3.60;;;6.60;61.90;;;;;;5079187;28;20195;-74
2022/03/09 08:37:45;;;;;;;5.03;3.90;;;6.70;61.40;;;;;;5074590;28;20199;-78
2022/03/09 08:40:13;;;;;;;5.20;3.47;;;6.80;61.80;;;;;;5111745;27;20213;-76
2022/03/09 08:42:43;;;;;;;5.37;3.90;;;6.90;61.90;;;;;;5079814;28;20176;-79
2022/03/09 08:45:09;;;;;;;4.77;3.97;;;7.00;60.90;;;;;;5094296;28;20253;-80
2022/03/09 08:47:37;;;;;;;5.53;3.83;;;7.00;60.60;;;;;;5085999;28;20190;-79
2022/03/09 08:50:06;;;;;;;5.13;3.67;;;7.10;60.00;;;;;;5088144;28;20185;-80
2022/03/09 08:52:34;;;;;;;5.60;3.50;;;7.20;60.70;;;;;;5059764;28;20176;-75
2022/03/09 08:55:03;;;;;;;5.37;3.83;;;7.30;60.40;;;;;;5071638;28;20387;-79
2022/03/09 08:57:29;;;;;;;5.20;4.17;;;7.30;59.20;;;;;;5072239;28;20177;-80
2022/03/09 09:00:01;;;;;;;5.43;4.10;;;7.40;59.10;;;;;;5111052;27;20172;-75
2022/03/09 09:02:29;;;;;;;6.07;4.13;;;7.40;59.30;;;;;;5073212;28;20234;-79
2022/03/09 09:04:55;;;;;;;6.13;4.00;;;7.50;59.00;;;;;;5080291;28;20263;-81
2022/03/09 09:07:21;;;;;;;4.93;3.87;;;7.60;58.80;;;;;;5101009;28;20270;-80
2022/03/09 09:09:47;;;;;;;5.53;3.70;;;7.60;59.20;;;;;;5103114;27;20213;-79
2022/03/09 09:12:15;;;;;;;4.67;3.57;;;7.70;59.20;;;;;;5106568;28;20179;-80
2022/03/09 09:14:40;;;;;;;5.20;3.73;;;7.80;59.00;;;;;;5081649;28;20183;-79
2022/03/09 09:17:07;;;;;;;4.30;3.33;;;7.90;59.20;;;;;;5111800;27;20203;-80
2022/03/09 09:19:33;;;;;;;5.63;3.80;;;8.00;59.50;;;;;;5110085;27;20209;-74
2022/03/09 09:22:01;;;;;;;4.83;3.67;;;8.00;58.90;;;;;;5108090;27;20183;-79
2022/03/09 09:24:27;;;;;;;4.10;3.30;;;8.10;58.80;;;;;;5084356;28;20220;-76
2022/03/09 09:26:53;;;;;;;4.57;3.23;;;8.20;59.10;;;;;;5087678;28;20175;-81
2022/03/09 09:29:19;;;;;;;6.50;4.40;;;8.30;59.20;;;;;;5075049;28;20351;-79
2022/03/09 09:31:47;;;;;;;6.97;4.20;;;8.40;58.30;;;;;;5104802;28;20219;-75
2022/03/09 09:34:13;;;;;;;6.63;4.00;;;8.50;57.80;;;;;;5076203;28;20175;-75
2022/03/09 09:36:44;;;;;;;6.27;4.30;;;8.50;56.50;;;;;;5085783;28;20188;-80
2022/03/09 09:39:13;;;;;;;5.77;4.20;;;8.60;57.20;;;;;;5087005;28;20208;-79
2022/03/09 09:41:42;;;;;;;5.70;4.07;;;8.70;57.20;;;;;;5077177;28;20393;-79
2022/03/09 09:44:09;;;;;;;8.50;3.80;;;9.00;56.80;;;;;;5078076;28;20203;-80
2022/03/09 09:46:40;;;;;;;6.57;4.10;;;9.50;56.10;;;;;;5109203;27;20196;-80
2022/03/09 09:49:12;;;;;;;5.93;4.00;;;10.30;55.60;;;;;;5110661;27;20239;-79
2022/03/09 09:51:41;;;;;;;6.67;4.87;;;11.00;54.90;;;;;;5083929;28;20179;-78
2022/03/09 09:54:07;;;;;;;6.03;4.77;;;11.70;51.30;;;;;;5069961;28;20314;-79
2022/03/09 09:56:40;;;;;;;6.57;5.30;;;12.20;51.60;;;;;;5102527;27;20184;-81
2022/03/09 09:59:08;;;;;;;7.63;4.80;;;12.70;47.20;;;;;;5080189;28;20290;-80
2022/03/09 10:01:36;;;;;;;5.53;4.27;;;13.10;48.80;;;;;;5078685;28;20269;-79
2022/03/09 10:04:06;;;;;;;6.75;4.57;;;13.40;47.50;;;;;;5074893;28;20187;-80
2022/03/09 10:06:33;;;;;;;4.43;3.70;;;13.70;47.20;;;;;;5108398;28;20176;-81
2022/03/09 10:09:07;;;;;;;5.50;4.45;;;14.00;48.20;;;;;;5109925;28;20200;-79
2022/03/09 10:11:56;;;;;;;5.05;4.05;;;14.40;46.60;;;;;;5077219;28;20180;-80
2022/03/09 10:14:46;;;;;;;5.80;4.05;;;14.60;46.00;;;;;;5104503;28;20203;-77
2022/03/09 10:17:22;;;;;;;4.93;3.90;;;14.90;46.20;;;;;;5112449;28;20188;-81
2022/03/09 10:19:50;;;;;;;5.68;4.55;;;15.00;45.70;;;;;;5061508;28;20272;-81
2022/03/09 10:22:22;;;;;;;10.20;4.13;;;15.10;45.00;;;;;;5102061;28;20192;-81
2022/03/09 10:24:48;;;;;;;5.10;4.45;;;15.10;44.00;;;;;;5084645;28;20560;-76
2022/03/09 10:27:32;;;;;;;9.07;5.65;;;15.20;44.60;;;;;;5073530;28;20256;-78
2022/03/09 10:30:00;;;;;;;5.25;4.60;;;15.20;41.70;;;;;;5111576;28;20182;-81
2022/03/09 10:32:46;;;;;;;5.40;4.60;;;15.20;43.70;;;;;;5115401;28;20176;-81
2022/03/09 10:35:18;;;;;;;5.20;4.57;;;15.30;43.20;;;;;;5086271;28;20346;-77
2022/03/09 10:37:47;;;;;;;6.53;5.10;;;15.30;43.90;;;;;;5106530;28;20179;-75
2022/03/09 10:40:22;;;;;;;8.70;5.20;;;15.30;42.70;;;;;;5074177;28;20191;-80
2022/03/09 10:42:49;;;;;;;5.60;4.43;;;15.40;42.40;;;;;;5106155;28;20183;-76
2022/03/09 10:45:17;;;;;;;5.05;4.32;;;15.50;43.90;;;;;;5109413;28;20210;-77
2022/03/09 10:47:47;;;;;;;6.00;4.28;;;15.60;43.90;;;;;;5061661;28;20164;-81
2022/03/09 10:50:19;;;;;;;4.85;4.30;;;15.80;43.20;;;;;;5110110;28;20180;-81
2022/03/09 10:52:57;;;;;;;5.57;4.47;;;15.90;43.80;;;;;;5110075;28;20172;-81
2022/03/09 10:55:24;;;;;;;5.75;4.60;;;16.00;44.10;;;;;;5116089;27;20183;-82
2022/03/09 10:57:51;;;;;;;6.53;5.10;;;16.20;42.70;;;;;;5098906;28;20249;-80
2022/03/09 11:00:39;;;;;;;7.15;5.47;;;16.20;42.40;;;;;;5080248;28;20214;-79
2022/03/09 11:03:13;;;;;;;7.25;5.47;;;16.40;41.60;;;;;;5115176;27;20199;-79
2022/03/09 11:05:57;;;;;;;7.15;5.57;;;16.40;39.70;;;;;;5077230;28;20211;-81
2022/03/09 11:08:28;;;;;;;5.55;4.93;;;16.30;40.30;;;;;;5089845;28;20241;-81
2022/03/09 11:11:03;;;;;;;10.10;5.20;;;16.20;40.10;;;;;;5087076;28;20199;-81
2022/03/09 11:13:37;;;;;;;5.88;5.20;;;16.20;41.30;;;;;;5078817;28;20180;-74
2022/03/09 11:16:03;;;;;;;6.63;4.85;;;16.20;40.70;;;;;;5096072;28;20225;-80
2022/03/09 11:18:31;;;;;;;5.47;4.60;;;16.10;40.80;;;;;;5087039;28;20176;-80
2022/03/09 11:21:04;;;;;;;6.60;4.82;;;16.10;41.70;;;;;;5084606;28;20377;-79
2022/03/09 11:23:33;;;;;;;5.90;5.00;;;16.20;40.90;;;;;;5106525;27;20220;-81
2022/03/09 11:26:01;;;;;;;5.35;4.63;;;16.20;42.20;;;;;;5083210;28;20177;-80
2022/03/09 11:28:31;;;;;;;4.68;4.05;;;16.20;42.10;;;;;;5113881;27;20256;-80
2022/03/09 11:31:00;;;;;;;6.13;5.15;;;16.30;42.80;;;;;;5088117;28;20238;-81
2022/03/09 11:33:45;;;;;;;6.50;5.18;;;16.40;41.50;;;;;;5112871;28;20206;-76
2022/03/09 11:36:33;;;;;;;8.60;5.55;;;16.50;40.60;;;;;;5091564;28;20187;-82
2022/03/09 11:39:18;;;;;;;5.80;4.80;;;16.50;41.70;;;;;;5091805;28;20172;-79
2022/03/09 11:41:46;;;;;;;8.82;5.05;;;16.50;40.60;;;;;;5082950;28;20190;-78
2022/03/09 11:44:21;;;;;;;7.82;4.55;;;16.60;42.30;;;;;;5112811;27;20223;-80
2022/03/09 11:47:00;;;;;;;7.05;4.80;;;16.70;41.70;;;;;;5084734;28;20191;-81
2022/03/09 11:49:36;;;;;;;5.80;5.00;;;16.80;40.70;;;;;;5080583;28;20186;-82
2022/03/09 11:52:15;;;;;;;6.43;4.95;;;16.90;41.20;;;;;;5083530;28;20191;-77
2022/03/09 11:54:45;;;;;;;5.82;4.95;;;16.90;40.80;;;;;;5111273;28;20168;-81
2022/03/09 11:57:13;;;;;;;7.47;5.15;;;17.00;41.50;;;;;;5078054;28;20259;-80
2022/03/09 11:59:41;;;;;;;6.97;5.45;;;17.00;41.70;;;;;;5108123;28;20199;-82
2022/03/09 12:02:10;;;;;;;5.68;4.90;;;17.00;41.00;;;;;;5068855;28;20175;-77
2022/03/09 12:04:53;;;;;;;7.50;5.47;;;17.00;40.40;;;;;;5071187;28;20215;-80
2022/03/09 12:07:28;;;;;;;5.95;5.15;;;17.10;38.60;;;;;;5086400;28;20193;-82
2022/03/09 12:10:10;;;;;;;6.32;5.13;;;17.10;39.80;;;;;;5088421;28;20168;-76
2022/03/09 12:12:37;;;;;;;8.32;5.93;;;17.20;39.30;;;;;;5117897;27;20200;-76
2022/03/09 12:15:07;;;;;;;8.25;5.35;;;17.20;40.90;;;;;;5108274;28;20202;-76
2022/03/09 12:17:37;;;;;;;5.00;4.50;;;17.40;41.30;;;;;;5122746;27;20175;-82
2022/03/09 12:20:18;;;;;;;8.20;5.63;;;17.40;40.90;;;;;;5083365;28;20190;-81
2022/03/09 12:22:59;;;;;;;9.05;5.80;;;17.50;38.90;;;;;;5085169;28;20197;-81
2022/03/09 12:25:47;;;;;;;6.47;5.28;;;17.60;38.80;;;;;;5080813;28;20222;-81
2022/03/09 12:28:24;;;;;;;6.65;4.95;;;17.70;39.30;;;;;;5086496;28;20164;-82
2022/03/09 12:30:52;;;;;;;6.88;5.70;;;17.70;37.90;;;;;;5086875;28;20253;-80
2022/03/09 12:33:24;;;;;;;6.72;5.43;;;17.80;39.40;;;;;;5078360;28;20313;-78
2022/03/09 12:35:53;;;;;;;6.22;5.60;;;17.90;39.60;;;;;;5110560;28;20202;-82
2022/03/09 12:38:19;;;;;;;7.97;6.10;;;17.90;38.10;;;;;;5113580;27;20176;-81
2022/03/09 12:40:47;;;;;;;6.82;5.82;;;17.90;38.40;;;;;;5109247;27;20252;-81
2022/03/09 12:43:13;;;;;;;7.43;6.00;;;17.90;38.00;;;;;;5088801;28;20183;-82
2022/03/09 12:45:55;;;;;;;6.00;5.32;;;18.00;38.60;;;;;;5079630;28;20204;-79
2022/03/09 12:48:24;;;;;;;6.63;5.78;;;18.00;36.00;;;;;;5112733;27;20176;-81
2022/03/09 12:50:50;;;;;;;6.07;5.45;;;18.00;37.30;;;;;;5089733;28;20312;-78
2022/03/09 12:53:19;;;;;;;7.80;5.78;;;18.10;38.00;;;;;;5081922;28;20223;-81
2022/03/09 12:55:48;;;;;;;6.75;5.68;;;18.10;37.40;;;;;;5076192;28;20215;-82
2022/03/09 12:58:24;;;;;;;7.45;5.95;;;18.10;38.60;;;;;;5095687;27;20195;-81
2022/03/09 13:01:04;;;;;;;7.78;6.28;;;18.10;36.70;;;;;;5091251;28;20266;-81
2022/03/09 13:03:30;;;;;;;6.95;5.65;;;18.20;36.50;;;;;;5079542;28;20184;-78
2022/03/09 13:05:56;;;;;;;8.63;5.40;;;18.20;37.80;;;;;;5076760;28;20294;-81